Terminal Aerodrome Forecast
Issued by NWS Corpus Christi, TX

Home | Current Version | Previous Version | Text Only | Print | Product List | Glossary On
Versions: 1 2 3 4 5 6 7 8 9 10 11 12 13 14 15 16 17 18 19 20
000
FTUS44 KCRP 282340
TAFCRP
TAF
KCRP 282340Z 2900/2924 15020G28KT P6SM SCT035
     FM290400 16018G25KT P6SM OVC025
     FM291600 16022G32KT P6SM BKN025
     FM292100 15020G30KT P6SM BKN035=

USA.gov is the U.S. government's official web portal to all federal, state and local government web resources and services.